Time;durP1;ratioP1;P1;durP2;ratioP2;P2;SDS_P1;SDS_P2;PMS_P1;PMS_P2;Temp;Humidity;BMP_temperature;BMP_pressure;BME280_temperature;BME280_humidity;BME280_pressure;Samples;Min_cycle;Max_cycle;Signal;HPM_P1;HPM_P2
2023/06/02 05:02:11;;;;;;;;;;;;;;;;;;;;;
2023/06/02 05:04:37;;;;;;;;;11.33;11.33;;;;;17.03;50.04;66969.09;6384511;22;58263;-88
2023/06/02 05:07:13;;;;;;;;;;;;;;;;;;;;;
2023/06/02 05:09:39;;;;;;;;;15.00;13.33;;;;;17.70;49.73;67004.91;6384860;22;54758;-88
2023/06/02 05:12:05;;;;;;;;;13.67;12.33;;;;;17.71;49.86;66982.00;6356502;22;28340;-88
2023/06/02 05:14:40;;;;;;;;;17.33;15.00;;;;;17.32;49.56;67001.53;6385676;22;28442;-88
2023/06/02 05:17:05;;;;;;;;;21.33;18.33;;;;;17.45;49.59;67022.53;6384483;22;28788;-87
2023/06/02 05:19:33;;;;;;;;;10.00;8.67;;;;;17.36;49.61;67030.78;6357680;22;28456;-89
2023/06/02 05:22:08;;;;;;;;;;;;;;;;;;;;;
2023/06/02 05:24:39;;;;;;;;;14.33;12.33;;;;;16.14;49.74;66826.22;6390427;22;58160;-93
2023/06/02 05:27:16;;;;;;;;;;;;;;;;;;;;;
2023/06/02 05:29:46;;;;;;;;;14.00;14.00;;;;;17.17;49.40;66856.53;6388071;22;54655;-90
2023/06/02 05:32:22;;;;;;;;;;;;;;;;;;;;;
2023/06/02 05:34:58;;;;;;;;;;;;;;;;;;;;;
2023/06/02 05:37:34;;;;;;;;;;;;;;;;;;;;;
2023/06/02 05:47:31;;;;;;;;;;;;;;;;;;;;;
2023/06/02 05:50:59;;;;;;;;;;;;;;;;;;;;;
2023/06/02 05:53:52;;;;;;;;;;;;;;;;;;;;;
2023/06/02 05:56:28;;;;;;;;;;;;;;;;;;;;;
2023/06/02 05:59:43;;;;;;;;;;;;;;;;;;;;;
2023/06/02 06:02:44;;;;;;;;;;;;;;;;;;;;;
2023/06/02 06:05:20;;;;;;;;;;;;;;;;;;;;;
2023/06/02 06:08:39;;;;;;;;;;;;;;;;;;;;;
2023/06/02 06:14:23;;;;;;;;;12.33;12.33;;;;;17.43;48.81;67057.03;6389579;22;55763;-84
2023/06/02 06:30:29;;;;;;;;;10.33;9.00;;;;;18.04;54.42;62608.94;6400012;22;28383;-88
2023/06/02 06:32:59;;;;;;;;;9.33;8.67;;;;;18.61;55.09;60960.75;6403171;22;28469;-86
2023/06/02 06:35:25;;;;;;;;;11.33;11.33;;;;;18.14;52.30;63638.00;6402664;22;28051;-88
2023/06/02 06:38:15;;;;;;;;;10.67;10.00;;;;;18.72;50.12;65224.94;6403382;22;27879;-89
2023/06/02 06:40:40;;;;;;;;;12.33;11.33;;;;;17.83;49.42;65696.13;6402874;22;28041;-91
2023/06/02 06:49:44;;;;;;;;;13.00;12.00;;;;;17.34;48.44;66269.78;6385113;22;27946;-96
2023/06/02 06:52:27;;;;;;;;;;;;;;;;;;;;;
2023/06/02 07:08:32;;;;;;;;;;;;;;;;;;;;;
2023/06/02 07:17:20;;;;;;;;;10.00;8.33;;;;;19.13;47.65;66716.56;6339522;22;28945;-88
2023/06/02 07:19:48;;;;;;;;;19.67;14.67;;;;;18.41;47.57;66737.00;6403419;22;28009;-89
2023/06/02 07:22:14;;;;;;;;;12.33;12.00;;;;;18.60;47.63;66817.22;6405072;22;28063;-89
2023/06/02 07:28:22;;;;;;;;;13.33;13.33;;;;;19.44;47.71;66823.50;6404378;22;27977;-90
2023/06/02 07:30:55;;;;;;;;;13.00;11.00;;;;;19.12;47.87;66787.72;6388191;22;27680;-89
2023/06/02 07:33:21;;;;;;;;;11.67;10.67;;;;;19.49;47.46;66813.19;6404629;22;27722;-86
2023/06/02 07:36:40;;;;;;;;;;;;;;;;;;;;;
2023/06/02 07:39:05;;;;;;;;;10.33;10.33;;;;;19.03;47.29;66742.53;6401640;22;57786;-86
2023/06/02 07:45:02;;;;;;;;;;;;;;;;;;;;;
2023/06/02 07:47:42;;;;;;;;;;;;;;;;;;;;;
2023/06/02 07:52:43;;;;;;;;;11.33;10.33;;;;;19.24;46.55;67179.41;6396341;22;28112;-85
2023/06/02 07:55:11;;;;;;;;;12.67;11.67;;;;;19.23;46.46;67156.81;6404566;22;27891;-86
2023/06/02 08:04:27;;;;;;;;;;;;;;;;;;;;;
2023/06/02 08:07:36;;;;;;;;;10.33;8.00;;;;;19.57;46.80;67198.38;6296522;22;54317;-87
2023/06/02 08:10:11;;;;;;;;;16.67;16.67;;;;;18.54;46.53;67167.47;6405066;22;28058;-90
2023/06/02 08:16:05;;;;;;;;;;;;;;;;;;;;;
2023/06/02 08:21:23;;;;;;;;;;;;;;;;;;;;;
2023/06/02 08:24:12;;;;;;;;;;;;;;;;;;;;;
2023/06/02 08:26:51;;;;;;;;;;;;;;;;;;;;;
2023/06/02 08:29:26;;;;;;;;;;;;;;;;;;;;;
2023/06/02 08:31:52;;;;;;;;;16.33;14.33;;;;;19.71;46.18;67240.28;6375361;22;50156;-87
2023/06/02 08:34:27;;;;;;;;;12.33;10.67;;;;;20.15;45.95;67239.22;6404723;22;28335;-88
2023/06/02 08:36:56;;;;;;;;;13.00;12.33;;;;;;;;6398359;22;28110;-90
2023/06/02 08:39:32;;;;;;;;;;;;;;;;;;;;;
2023/06/02 08:42:09;;;;;;;;;8.00;8.00;;;;;19.82;46.27;67170.47;6396934;22;49590;-90
2023/06/02 08:44:44;;;;;;;;;7.33;7.33;;;;;20.34;45.93;67115.72;6404147;22;29315;-87
2023/06/02 08:47:52;;;;;;;;;;;;;;;;;;;;;
2023/06/02 08:50:19;;;;;;;;;9.00;9.00;;;;;19.44;45.61;67086.78;6395095;22;53930;-88
2023/06/02 08:53:02;;;;;;;;;10.67;9.00;;;;;19.58;45.83;67164.09;6404214;22;28107;-87
2023/06/02 08:55:50;;;;;;;;;6.00;6.00;;;;;19.61;45.64;67082.31;6403729;22;28693;-86
2023/06/02 08:58:15;;;;;;;;;6.67;6.67;;;;;20.65;45.91;67151.66;6376317;22;28540;-88
2023/06/02 09:00:57;;;;;;;;;;;;;;;;;;;;;
2023/06/02 09:03:51;;;;;;;;;;;;;;;;;;;;;
2023/06/02 09:06:43;;;;;;;;;8.00;7.00;;;;;19.89;45.57;67037.94;6395357;22;58853;-89
2023/06/02 09:16:20;;;;;;;;;11.00;10.00;;;;;22.01;44.80;66769.63;6399484;22;47649;-89
2023/06/02 09:21:47;;;;;;;;;;;;;;;;;;;;;
2023/06/02 09:29:19;;;;;;;;;6.67;6.67;;;;;27.24;38.90;67724.50;6352817;22;45726;-92
2023/06/02 09:38:46;;;;;;;;;6.00;6.00;;;;;29.02;36.35;68762.66;6352953;22;44925;-93
2023/06/02 09:44:26;;;;;;;;;;;;;;;;;;;;;
2023/06/02 09:47:05;;;;;;;;;;;;;;;;;;;;;
2023/06/02 10:08:02;;;;;;;;;;;;;;;;;;;;;
2023/06/02 10:10:49;;;;;;;;;6.00;5.25;;;;;-145.03;100.00;62373.16;6394583;22;50577;-91
2023/06/02 10:13:20;;;;;;;;;8.00;7.00;;;;;-145.03;100.00;62373.16;6359446;22;30146;-90
2023/06/02 10:16:00;;;;;;;;;7.25;6.50;;;;;-145.03;100.00;62373.16;6387760;22;28427;-91
2023/06/02 10:18:56;;;;;;;;;6.67;6.33;;;;;-145.03;100.00;62373.16;6387790;22;28396;-91
2023/06/02 10:21:27;;;;;;;;;11.67;8.67;;;;;-145.03;100.00;62373.16;6360368;22;28427;-91
2023/06/02 10:24:32;;;;;;;;;8.33;8.33;;;;;-145.03;100.00;62373.16;6388767;22;29421;-90
2023/06/02 10:27:20;;;;;;;;;7.50;7.50;;;;;-145.03;100.00;62373.16;6359460;22;28847;-88
2023/06/02 10:39:56;;;;;;;;;6.00;6.00;;;;;-145.03;100.00;62373.16;6331543;22;29067;-86
2023/06/02 10:45:20;;;;;;;;;6.00;5.00;;;;;-145.03;100.00;62373.16;6372548;22;27832;-85
2023/06/02 10:47:46;;;;;;;;;6.00;6.00;;;;;-145.03;100.00;62373.16;6371447;22;28300;-85
2023/06/02 10:50:14;;;;;;;;;6.33;6.33;;;;;-145.03;100.00;62373.16;6372958;22;28003;-87
2023/06/02 10:53:03;;;;;;;;;7.00;7.00;;;;;-145.03;100.00;62373.16;6373284;22;27695;-85
2023/06/02 10:55:40;;;;;;;;;6.00;4.00;;;;;-145.03;100.00;62373.16;6373444;22;27988;-88
2023/06/02 10:58:07;;;;;;;;;7.67;4.33;;;;;-145.03;100.00;62373.16;6373124;22;29054;-86
2023/06/02 11:00:35;;;;;;;;;5.00;4.75;;;;;-145.03;100.00;62373.16;6345235;22;27886;-86
2023/06/02 11:03:10;;;;;;;;;1.50;1.00;;;;;-145.03;100.00;62373.16;6371946;22;27887;-85
2023/06/02 11:06:32;;;;;;;;;;;;;;;;;;;;;
2023/06/02 11:09:42;;;;;;;;;2.75;2.75;;;;;-145.03;100.00;62373.16;6358523;22;57512;-87
2023/06/02 11:12:08;;;;;;;;;2.00;2.00;;;;;-145.03;100.00;62373.16;6372587;22;28032;-88
2023/06/02 11:15:12;;;;;;;;;;;;;;;;;;;;;
2023/06/02 11:18:37;;;;;;;;;;;;;;;;;;;;;
2023/06/02 11:21:34;;;;;;;;;;;;;;;;;;;;;
2023/06/02 11:24:02;;;;;;;;;3.75;3.75;;;;;-145.03;100.00;62373.16;6262443;22;56458;-87
2023/06/02 11:26:31;;;;;;;;;5.00;4.25;;;;;-145.03;100.00;62373.16;6275958;22;27956;-86
2023/06/02 11:29:13;;;;;;;;;4.33;4.33;;;;;-145.03;100.00;62373.16;6249979;22;28140;-87
2023/06/02 11:31:47;;;;;;;;;4.67;4.67;;;;;-145.03;100.00;62373.16;6275870;22;28299;-87
2023/06/02 11:34:15;;;;;;;;;4.50;4.50;;;;;-145.03;100.00;62373.16;6274832;22;27827;-86
2023/06/02 11:36:42;;;;;;;;;2.75;2.75;;;;;-145.03;100.00;62373.16;6276822;22;27853;-86
2023/06/02 11:39:08;;;;;;;;;8.00;6.33;;;;;-145.03;100.00;62373.16;6276799;22;28215;-83
2023/06/02 11:41:33;;;;;;;;;8.33;6.33;;;;;-145.03;100.00;62373.16;6276356;22;29008;-85
2023/06/02 11:44:07;;;;;;;;;4.67;3.67;;;;;-145.03;100.00;62373.16;6275265;22;28022;-86
2023/06/02 11:46:33;;;;;;;;;2.25;2.25;;;;;-145.03;100.00;62373.16;6276123;22;28186;-86
2023/06/02 11:48:59;;;;;;;;;2.33;2.33;;;;;-145.03;100.00;62373.16;6277323;22;28106;-85
2023/06/02 11:51:25;;;;;;;;;4.00;4.00;;;;;-145.03;100.00;62373.16;6300800;22;28221;-88
2023/06/02 11:54:02;;;;;;;;;2.67;2.67;;;;;-145.03;0.00;62373.16;6309943;22;27982;-83
2023/06/02 11:56:28;;;;;;;;;3.25;3.25;;;;;-97.90;100.00;62373.16;6308377;22;28001;-82
2023/06/02 11:58:54;;;;;;;;;3.67;3.67;;;;;33.15;33.50;51715.84;6309365;22;28135;-83
2023/06/02 12:03:53;;;;;;;;;2.33;2.00;;;;;-145.03;33.67;68890.19;6341318;22;27928;-84
2023/06/02 12:06:21;;;;;;;;;3.00;3.00;;;;;-97.90;100.00;68678.06;6340783;22;28109;-85
2023/06/02 12:08:47;;;;;;;;;3.33;3.33;;;;;-97.90;19.80;68586.97;6348064;22;28346;-83
2023/06/02 12:20:25;;;;;;;;;4.67;4.67;;;;;31.26;28.08;51687.78;6369098;22;27984;-83
2023/06/02 12:22:54;;;;;;;;;3.00;2.00;;;;;31.06;27.71;51703.97;6359044;22;29710;-83
2023/06/02 12:25:20;;;;;;;;;3.75;2.75;;;;;31.05;27.71;70201.78;6402583;22;27955;-87
2023/06/02 12:27:48;;;;;;;;;3.33;3.33;;;;;30.71;28.92;70229.56;6388276;22;44818;-85
2023/06/02 12:30:15;;;;;;;;;3.67;3.67;;;;;30.37;28.38;70208.47;6385749;22;45021;-86
2023/06/02 12:32:40;;;;;;;;;5.00;3.67;;;;;30.09;28.64;70170.63;6384623;22;45832;-83
2023/06/02 12:35:06;;;;;;;;;4.67;4.67;;;;;29.49;28.86;70138.00;6384970;22;44977;-83
2023/06/02 12:37:31;;;;;;;;;5.00;5.00;;;;;29.73;28.68;70078.97;6385444;22;45078;-83
2023/06/02 12:39:57;;;;;;;;;3.33;3.00;;;;;30.07;28.69;70220.06;6385351;22;44920;-83
2023/06/02 12:42:23;;;;;;;;;2.67;2.67;;;;;29.10;29.52;70059.75;6384654;22;45365;-82
2023/06/02 12:44:51;;;;;;;;;5.33;4.00;;;;;29.91;29.42;70152.38;6381084;22;45259;-86
2023/06/02 12:47:29;;;;;;;;;3.67;3.67;;;;;28.83;29.24;70012.25;6384278;22;45104;-86
2023/06/02 12:50:21;;;;;;;;;4.33;3.00;;;;;29.10;29.62;70073.97;6385333;22;45084;-85
2023/06/02 12:52:50;;;;;;;;;4.00;4.00;;;;;29.00;29.72;70124.59;6378167;22;45755;-84
2023/06/02 12:55:18;;;;;;;;;4.00;4.00;;;;;29.05;29.52;70073.41;6383505;22;44964;-84
2023/06/02 12:57:46;;;;;;;;;4.00;4.00;;;;;28.87;29.82;70145.00;6383633;22;44870;-83
2023/06/02 13:00:12;;;;;;;;;5.33;5.33;;;;;29.15;29.82;70120.84;6383687;22;44749;-83
2023/06/02 13:02:54;;;;;;;;;;;;;;;;;;;;;
2023/06/02 13:05:35;;;;;;;;;;;;;;;;;;;;;
2023/06/02 13:08:12;;;;;;;;;;;;;;;;;;;;;
2023/06/02 13:10:47;;;;;;;;;;;;;;;;;;;;;
2023/06/02 13:13:23;;;;;;;;;;;;;;;;;;;;;
2023/06/02 13:15:59;;;;;;;;;;;;;;;;;;;;;
2023/06/02 13:18:25;;;;;;;;;3.00;3.00;;;;;28.51;31.51;70217.31;6332203;22;67658;-88
2023/06/02 13:20:59;;;;;;;;;6.00;4.00;;;;;27.78;32.16;70155.84;6307456;22;45656;-89
2023/06/02 13:23:34;;;;;;;;;;;;;;;;;;;;;
2023/06/02 13:26:10;;;;;;;;;;;;;;;;;;;;;
2023/06/02 13:28:43;;;;;;;;;4.00;3.00;;;;;27.56;32.35;69991.44;6337097;22;69011;-89
2023/06/02 13:31:18;;;;;;;;;;;;;;;;;;;;;
2023/06/02 13:33:44;;;;;;;;;5.67;3.33;;;;;27.53;31.80;70061.78;6334780;22;75308;-89
2023/06/02 13:36:13;;;;;;;;;3.33;3.33;;;;;28.07;32.74;70121.50;6308030;22;45533;-89
2023/06/02 13:38:39;;;;;;;;;7.00;5.33;;;;;27.65;31.88;70115.75;6334915;22;45306;-90
2023/06/02 13:41:05;;;;;;;;;3.00;3.00;;;;;27.72;31.70;70096.97;6335148;22;45280;-88
2023/06/02 13:43:30;;;;;;;;;4.00;4.00;;;;;27.63;32.32;70037.25;6334656;22;45853;-88
2023/06/02 13:45:56;;;;;;;;;6.67;5.33;;;;;26.70;32.89;70015.53;6334797;22;45618;-87
2023/06/02 13:48:21;;;;;;;;;5.00;5.00;;;;;27.70;31.01;69991.31;6306805;22;45552;-87
2023/06/02 13:50:46;;;;;;;;;6.00;4.33;;;;;27.55;31.60;70020.69;6334662;22;45508;-88
2023/06/02 13:53:19;;;;;;;;;4.67;4.00;;;;;27.81;32.33;70109.91;6333684;22;45755;-90
2023/06/02 13:56:00;;;;;;;;;;;;;;;;;;;;;
2023/06/02 13:58:36;;;;;;;;;;;;;;;;;;;;;
2023/06/02 14:01:04;;;;;;;;;4.00;4.00;;;;;27.21;32.97;70024.00;6343308;22;60996;-88
2023/06/02 14:03:30;;;;;;;;;3.67;3.67;;;;;27.34;32.76;70064.03;6356963;22;47097;-87
2023/06/02 14:05:56;;;;;;;;;3.67;3.67;;;;;27.14;33.21;69959.13;6384119;22;44938;-89
2023/06/02 14:08:21;;;;;;;;;3.33;3.33;;;;;27.31;33.00;70002.78;6357660;22;45032;-89
2023/06/02 14:10:47;;;;;;;;;5.67;5.00;;;;;27.16;32.90;69996.84;6385300;22;45068;-89
2023/06/02 14:13:13;;;;;;;;;3.00;3.00;;;;;27.56;33.58;70098.00;6384694;22;45524;-88
2023/06/02 14:15:49;;;;;;;;;3.67;3.00;;;;;26.69;33.53;69995.34;6383176;22;45221;-89
2023/06/02 14:18:22;;;;;;;;;4.33;4.33;;;;;27.43;33.81;70063.38;6383210;22;45168;-87
2023/06/02 14:20:50;;;;;;;;;4.67;3.67;;;;;27.50;33.58;70068.44;6384988;22;45263;-95
2023/06/02 14:31:51;;;;;;;;;3.67;2.67;;;;;27.20;34.49;70074.38;6318008;22;45858;-86
2023/06/02 14:34:20;;;;;;;;;3.00;3.00;;;;;27.43;34.79;70115.00;6383991;22;46551;-85
2023/06/02 14:36:45;;;;;;;;;3.00;3.00;;;;;26.75;34.78;70021.53;6357628;22;45071;-88
2023/06/02 14:39:12;;;;;;;;;9.33;8.00;;;;;27.40;34.49;70076.06;6385212;22;44862;-86
2023/06/02 14:41:38;;;;;;;;;3.33;3.33;;;;;27.20;35.40;70103.66;6386196;22;44878;-89
2023/06/02 14:44:03;;;;;;;;;4.67;4.67;;;;;27.04;34.83;70042.19;6386294;22;46168;-87
2023/06/02 14:46:29;;;;;;;;;3.33;3.33;;;;;26.95;34.91;70029.28;6358592;22;44945;-91
2023/06/02 14:48:54;;;;;;;;;5.67;3.33;;;;;26.83;34.93;70061.00;6386347;22;44820;-88
2023/06/02 14:51:19;;;;;;;;;3.00;3.00;;;;;27.22;35.16;70078.91;6386343;22;44987;-88
2023/06/02 14:54:16;;;;;;;;;4.67;4.67;;;;;27.19;35.70;70129.59;6385428;22;46047;-88
2023/06/02 14:59:27;;;;;;;;;;;;;;;;;;;;;
2023/06/02 15:02:07;;;;;;;;;;;;;;;;;;;;;
2023/06/02 15:10:15;;;;;;;;;4.00;4.00;;;;;26.45;35.58;70029.53;6368488;22;45799;-87
2023/06/02 15:12:40;;;;;;;;;4.33;4.33;;;;;26.88;35.57;70004.59;6385045;22;45026;-87
2023/06/02 15:15:06;;;;;;;;;4.33;4.33;;;;;26.70;36.26;70032.44;6385224;22;46301;-91
2023/06/02 15:17:34;;;;;;;;;6.00;6.00;;;;;26.62;35.96;70096.09;6356918;22;44997;-91
2023/06/02 15:20:51;;;;;;;;;;;;;;;;;;;;;
2023/06/02 15:23:06;;;;;;;;;5.33;3.33;;;;;26.13;35.81;70002.53;6374929;22;45127;-92
2023/06/02 15:25:35;;;;;;;;;4.67;4.67;;;;;26.18;35.62;69940.78;6385042;22;46355;-93
2023/06/02 15:28:01;;;;;;;;;3.33;3.33;;;;;26.35;35.76;69955.13;6383714;22;44841;-88
2023/06/02 15:30:28;;;;;;;;;6.00;4.67;;;;;26.35;35.99;69938.88;6358814;22;44989;-91
2023/06/02 15:32:54;;;;;;;;;8.67;6.00;;;;;26.46;36.01;70050.31;6386517;22;45040;-90
2023/06/02 15:35:19;;;;;;;;;6.33;5.00;;;;;26.57;36.67;69991.78;6385306;22;45841;-92
2023/06/02 15:37:45;;;;;;;;;5.00;5.00;;;;;26.53;36.27;70004.47;6357006;22;44944;-92
2023/06/02 15:40:11;;;;;;;;;5.00;5.00;;;;;25.98;36.53;69890.28;6385429;22;45006;-88
2023/06/02 15:42:36;;;;;;;;;7.67;6.33;;;;;25.99;36.38;69973.41;6386060;22;45037;-89
2023/06/02 15:45:02;;;;;;;;;5.00;5.00;;;;;25.69;36.08;69932.56;6357408;22;47234;-89
2023/06/02 15:47:27;;;;;;;;;3.33;3.33;;;;;25.83;36.31;69927.06;6385721;22;44823;-87
2023/06/02 15:49:53;;;;;;;;;6.00;6.00;;;;;26.09;36.80;69906.19;6386013;22;45045;-85
2023/06/02 15:52:18;;;;;;;;;4.33;4.33;;;;;26.37;36.61;69960.84;6385207;22;44984;-85
2023/06/02 15:54:46;;;;;;;;;3.33;3.33;;;;;25.94;37.00;69913.16;6384928;22;45974;-84
2023/06/02 15:57:15;;;;;;;;;6.33;6.33;;;;;26.31;36.97;70003.06;6385077;22;45022;-88
2023/06/02 15:59:49;;;;;;;;;4.00;4.00;;;;;25.82;36.07;69896.06;6336021;22;45244;-96
2023/06/02 16:02:15;;;;;;;;;3.33;3.33;;;;;25.41;36.84;69869.78;6322369;22;44944;-90
2023/06/02 16:04:41;;;;;;;;;5.33;5.33;;;;;26.10;36.40;69880.25;6322116;22;46189;-92
2023/06/02 16:07:06;;;;;;;;;6.00;4.00;;;;;25.85;36.92;69856.91;6321924;22;44915;-89
2023/06/02 16:09:31;;;;;;;;;4.33;4.00;;;;;25.74;36.16;69897.31;6322551;22;44870;-85
2023/06/02 16:12:04;;;;;;;;;6.00;6.00;;;;;25.80;36.57;69842.16;6322589;22;44871;-87
2023/06/02 16:14:30;;;;;;;;;3.67;3.67;;;;;25.79;36.31;69819.91;6321812;22;45353;-86
2023/06/02 16:17:01;;;;;;;;;4.33;4.33;;;;;25.43;36.33;69802.34;6321796;22;44907;-86
2023/06/02 16:19:26;;;;;;;;;3.67;3.67;;;;;25.87;36.25;69853.91;6322370;22;44805;-85
2023/06/02 16:22:05;;;;;;;;;;;;;;;;;;;;;
2023/06/02 16:24:31;;;;;;;;;6.33;4.67;;;;;25.28;36.11;69820.16;6317255;22;75897;-88
2023/06/02 16:29:56;;;;;;;;;3.67;3.67;;;;;25.36;36.03;69777.72;6347836;22;45000;-86
2023/06/02 16:32:31;;;;;;;;;;;;;;;;;;;;;
2023/06/02 16:35:07;;;;;;;;;;;;;;;;;;;;;
2023/06/02 16:37:40;;;;;;;;;4.33;4.33;;;;;24.88;36.03;69829.66;6367441;22;72901;-91
2023/06/02 16:40:16;;;;;;;;;;;;;;;;;;;;;
2023/06/02 16:42:52;;;;;;;;;;;;;;;;;;;;;
2023/06/02 16:45:18;;;;;;;;;6.33;4.00;;;;;25.55;36.03;69818.84;6367038;22;75332;-91
2023/06/02 16:47:56;;;;;;;;;;;;;;;;;;;;;
2023/06/02 16:50:31;;;;;;;;;3.33;3.33;;;;;24.56;35.75;69629.63;6367424;22;67648;-92
2023/06/02 16:52:57;;;;;;;;;3.33;3.33;;;;;24.38;36.02;69616.81;6340228;22;45459;-90
2023/06/02 16:55:24;;;;;;;;;4.00;4.00;;;;;24.23;36.16;69680.53;6368435;22;45817;-90
2023/06/02 16:57:50;;;;;;;;;4.00;2.33;;;;;24.79;35.84;69762.03;6340783;22;45348;-91
2023/06/02 17:01:04;;;;;;;;;;;;;;;;;;;;;
2023/06/02 17:03:39;;;;;;;;;;;;;;;;;;;;;
2023/06/02 17:13:55;;;;;;;;;;;;;;;;;;;;;
2023/06/02 17:19:29;;;;;;;;;;;;;;;;;;;;;
2023/06/02 17:22:08;;;;;;;;;;;;;;;;;;;;;
2023/06/02 17:24:48;;;;;;;;;;;;;;;;;;;;;
2023/06/02 17:30:58;;;;;;;;;;;;;;;;;;;;;
2023/06/02 17:33:24;;;;;;;;;2.00;2.00;;;;;23.66;35.22;69505.50;6268541;22;72978;-91
2023/06/02 17:36:08;;;;;;;;;;;;;;;;;;;;;
2023/06/02 17:38:47;;;;;;;;;;;;;;;;;;;;;
2023/06/02 17:41:15;;;;;;;;;3.00;2.00;;;;;23.10;35.60;69494.34;6270936;22;74554;-92
2023/06/02 17:43:51;;;;;;;;;;;;;;;;;;;;;
2023/06/02 17:46:30;;;;;;;;;;;;;;;;;;;;;
2023/06/02 17:49:23;;;;;;;;;;;;;;;;;;;;;
2023/06/02 17:51:59;;;;;;;;;;;;;;;;;;;;;
2023/06/02 17:54:35;;;;;;;;;;;;;;;;;;;;;
2023/06/02 17:57:11;;;;;;;;;;;;;;;;;;;;;
2023/06/02 17:59:55;;;;;;;;;;;;;;;;;;;;;
2023/06/02 18:02:39;;;;;;;;;;;;;;;;;;;;;
2023/06/02 18:05:16;;;;;;;;;;;;;;;;;;;;;
2023/06/02 18:07:51;;;;;;;;;;;;;;;;;;;;;
2023/06/02 18:10:27;;;;;;;;;;;;;;;;;;;;;
2023/06/02 18:13:03;;;;;;;;;;;;;;;;;;;;;
2023/06/02 18:15:39;;;;;;;;;;;;;;;;;;;;;
2023/06/02 18:18:15;;;;;;;;;;;;;;;;;;;;;
2023/06/02 18:20:51;;;;;;;;;;;;;;;;;;;;;
2023/06/02 18:23:27;;;;;;;;;;;;;;;;;;;;;
2023/06/02 18:26:02;;;;;;;;;;;;;;;;;;;;;
2023/06/02 18:28:38;;;;;;;;;;;;;;;;;;;;;
2023/06/02 18:31:14;;;;;;;;;;;;;;;;;;;;;
2023/06/02 18:33:50;;;;;;;;;;;;;;;;;;;;;
2023/06/02 18:36:29;;;;;;;;;;;;;;;;;;;;;
2023/06/02 18:39:36;;;;;;;;;;;;;;;;;;;;;
2023/06/02 18:42:11;;;;;;;;;;;;;;;;;;;;;
2023/06/02 18:44:47;;;;;;;;;;;;;;;;;;;;;
2023/06/02 18:47:23;;;;;;;;;;;;;;;;;;;;;
2023/06/02 18:49:59;;;;;;;;;;;;;;;;;;;;;
2023/06/02 18:52:35;;;;;;;;;;;;;;;;;;;;;
2023/06/02 18:55:11;;;;;;;;;;;;;;;;;;;;;
2023/06/02 18:57:47;;;;;;;;;;;;;;;;;;;;;
2023/06/02 19:04:36;;;;;;;;;;;;;;;;;;;;;
2023/06/02 19:07:34;;;;;;;;;;;;;;;;;;;;;
2023/06/02 19:10:00;;;;;;;;;1.67;1.67;;;;;23.22;36.34;69454.72;6286550;22;72122;-84
2023/06/02 19:12:25;;;;;;;;;5.67;3.00;;;;;23.55;36.38;69519.94;6385792;22;45350;-86
2023/06/02 19:14:54;;;;;;;;;2.67;2.67;;;;;23.23;36.42;69466.72;6357450;22;44911;-84
2023/06/02 19:17:35;;;;;;;;;;;;;;;;;;;;;
2023/06/02 19:20:05;;;;;;;;;3.67;3.67;;;;;22.73;36.60;69503.16;6383091;22;72422;-86
2023/06/02 19:22:41;;;;;;;;;4.00;4.00;;;;;23.24;36.40;69556.94;6385170;22;44930;-87
2023/06/02 19:25:06;;;;;;;;;2.33;2.33;;;;;22.96;37.00;69489.56;6385915;22;45159;-85
2023/06/02 19:27:32;;;;;;;;;4.00;2.67;;;;;23.25;37.02;69471.19;6385221;22;45902;-87
2023/06/02 19:29:58;;;;;;;;;4.33;3.33;;;;;23.19;37.05;69505.09;6384825;22;45038;-85
2023/06/02 19:32:32;;;;;;;;;4.00;3.00;;;;;22.89;36.89;69421.88;6385698;22;44879;-85
2023/06/02 19:34:57;;;;;;;;;4.00;4.00;;;;;23.03;37.13;69523.75;6385684;22;44893;-87
2023/06/02 19:37:23;;;;;;;;;2.67;2.00;;;;;23.16;37.00;69483.22;6385216;22;44883;-86
2023/06/02 19:39:51;;;;;;;;;3.67;3.00;;;;;22.85;37.32;69476.44;6385064;22;44847;-87
2023/06/02 19:42:19;;;;;;;;;4.00;3.33;;;;;23.39;37.18;69541.91;6357956;22;44890;-87
2023/06/02 19:44:47;;;;;;;;;3.00;3.00;;;;;23.35;37.00;69545.81;6384891;22;45024;-87
2023/06/02 19:47:13;;;;;;;;;2.67;2.00;;;;;22.60;37.13;69398.06;6384707;22;45312;-86
2023/06/02 19:49:41;;;;;;;;;3.00;3.00;;;;;22.82;37.32;69456.06;6385340;22;44965;-85
2023/06/02 19:52:06;;;;;;;;;4.00;4.00;;;;;23.31;37.25;69532.34;6385272;22;45205;-93
2023/06/02 19:54:40;;;;;;;;;4.00;3.00;;;;;22.90;37.12;69455.44;6386087;22;45006;-91
2023/06/02 19:57:06;;;;;;;;;2.67;2.67;;;;;22.84;37.01;69469.25;6385486;22;45301;-88
2023/06/02 19:59:32;;;;;;;;;4.00;4.00;;;;;23.06;37.46;69465.28;6383960;22;44989;-87
2023/06/02 20:01:58;;;;;;;;;5.00;3.33;;;;;23.05;37.16;69453.91;6385747;22;44981;-87
2023/06/02 20:04:23;;;;;;;;;6.67;6.67;;;;;22.65;37.19;69482.78;6358353;22;44981;-89
2023/06/02 20:06:48;;;;;;;;;4.33;4.33;;;;;23.09;37.21;69503.94;6385755;22;45670;-85
2023/06/02 20:09:16;;;;;;;;;4.67;3.33;;;;;22.52;37.81;69387.00;6386142;22;44970;-86
2023/06/02 20:11:43;;;;;;;;;4.00;3.00;;;;;22.37;37.77;69404.13;6386198;22;44831;-86
2023/06/02 20:14:08;;;;;;;;;5.67;4.33;;;;;22.21;37.55;69407.16;6386264;22;45091;-88
2023/06/02 20:16:34;;;;;;;;;4.67;4.67;;;;;22.40;37.73;69442.72;6385665;22;45510;-87
2023/06/02 20:18:59;;;;;;;;;4.00;3.00;;;;;22.59;37.81;69454.03;6386114;22;44948;-87
2023/06/02 20:21:27;;;;;;;;;4.00;4.00;;;;;22.68;37.38;69434.56;6386185;22;44919;-88
2023/06/02 20:23:52;;;;;;;;;5.00;3.67;;;;;22.84;37.66;69440.19;6386515;22;44997;-88
2023/06/02 20:26:21;;;;;;;;;3.00;3.00;;;;;22.47;37.25;69345.97;6358596;22;46362;-90
2023/06/02 20:28:46;;;;;;;;;5.00;3.33;;;;;22.40;37.70;69485.25;6385745;22;44812;-89
2023/06/02 20:31:12;;;;;;;;;3.00;3.00;;;;;22.21;37.63;69344.59;6358445;22;44901;-88
2023/06/02 20:33:39;;;;;;;;;4.67;4.33;;;;;22.34;37.46;69303.53;6386601;22;45047;-86
2023/06/02 20:36:07;;;;;;;;;3.00;3.00;;;;;22.69;37.59;69525.31;6385914;22;45950;-86
2023/06/02 20:38:33;;;;;;;;;5.00;4.00;;;;;22.14;38.29;69377.22;6385724;22;44944;-87
2023/06/02 20:40:58;;;;;;;;;4.00;3.00;;;;;21.99;38.01;69343.75;6385998;22;45130;-86
2023/06/02 20:43:23;;;;;;;;;3.33;3.33;;;;;22.31;37.79;69392.16;6385075;22;44994;-85
2023/06/02 20:45:54;;;;;;;;;4.33;3.00;;;;;22.43;37.97;69454.41;6385245;22;45082;-83
2023/06/02 20:48:20;;;;;;;;;50.00;41.33;;;;;22.61;37.50;69413.31;6389274;22;44890;-85
2023/06/02 20:50:51;;;;;;;;;8.00;8.00;;;;;22.60;37.78;69381.88;6386076;22;44985;-85
2023/06/02 20:53:17;;;;;;;;;3.33;3.33;;;;;22.57;38.03;69402.53;6389170;22;44760;-88
2023/06/02 20:55:44;;;;;;;;;3.00;3.00;;;;;21.70;38.18;69224.22;6357513;22;46596;-90
2023/06/02 20:58:09;;;;;;;;;4.00;4.00;;;;;22.00;38.83;69309.94;6387299;22;44884;-91
2023/06/02 21:00:35;;;;;;;;;5.00;3.33;;;;;22.17;38.07;69324.22;6385922;22;44917;-89
2023/06/02 21:03:00;;;;;;;;;4.00;4.00;;;;;22.05;38.49;69480.19;6384821;22;44990;-91
2023/06/02 21:05:26;;;;;;;;;3.00;3.00;;;;;21.77;38.86;69336.34;6357638;22;46981;-88
2023/06/02 21:07:51;;;;;;;;;4.00;4.00;;;;;22.03;38.61;69329.69;6384424;22;44949;-91
2023/06/02 21:10:18;;;;;;;;;3.67;3.67;;;;;22.39;38.57;69374.16;6356572;22;45003;-88
2023/06/02 21:12:47;;;;;;;;;2.00;2.00;;;;;22.37;38.44;69409.50;6385754;22;45010;-90
2023/06/02 21:15:13;;;;;;;;;3.00;3.00;;;;;21.97;38.61;69354.25;6384835;22;46351;-88
2023/06/02 21:17:43;;;;;;;;;3.00;3.00;;;;;22.27;38.64;69346.97;6384884;22;44754;-91
2023/06/02 21:20:11;;;;;;;;;2.00;2.00;;;;;21.96;38.94;69299.19;6385304;22;44953;-93
2023/06/02 21:22:36;;;;;;;;;2.67;2.67;;;;;22.25;39.20;69355.34;6357906;22;44919;-91
2023/06/02 21:25:04;;;;;;;;;2.00;2.00;;;;;21.61;38.70;69347.44;6384967;22;45979;-91
2023/06/02 21:27:30;;;;;;;;;3.33;3.00;;;;;21.38;39.06;69342.69;6385880;22;44851;-90
2023/06/02 21:29:55;;;;;;;;;1.33;1.33;;;;;21.75;38.70;69302.25;6385886;22;44907;-90
2023/06/02 21:32:20;;;;;;;;;3.00;3.00;;;;;21.71;39.29;69275.94;6385922;22;44970;-91
2023/06/02 21:34:46;;;;;;;;;2.00;2.00;;;;;21.71;39.32;69268.47;6385812;22;46431;-92
2023/06/02 21:37:11;;;;;;;;;2.33;2.33;;;;;21.60;39.47;69424.31;6385714;22;44982;-92
2023/06/02 21:39:39;;;;;;;;;2.00;2.00;;;;;21.93;39.05;69267.16;6384628;22;45123;-90
2023/06/02 21:42:14;;;;;;;;;3.00;3.00;;;;;21.09;39.59;69319.41;6357959;22;45076;-90
2023/06/02 21:44:39;;;;;;;;;2.33;2.00;;;;;21.98;39.41;69296.78;6384705;22;45271;-91
2023/06/02 21:47:07;;;;;;;;;4.00;3.00;;;;;21.01;39.47;69264.16;6384997;22;44870;-96
2023/06/02 21:49:33;;;;;;;;;2.00;2.00;;;;;21.64;39.41;69386.63;6386236;22;44914;-95
2023/06/02 21:51:58;;;;;;;;;3.00;3.00;;;;;21.76;39.76;69255.00;6385025;22;44960;-95
2023/06/02 21:54:23;;;;;;;;;2.33;2.33;;;;;21.22;39.43;69230.03;6386835;22;45724;-94
2023/06/02 21:56:49;;;;;;;;;5.00;4.00;;;;;21.36;39.58;69372.59;6387193;22;44920;-93
2023/06/02 21:59:14;;;;;;;;;2.67;2.67;;;;;21.48;39.53;69292.16;6385451;22;44935;-88
2023/06/02 22:01:39;;;;;;;;;2.67;2.67;;;;;21.61;39.41;69223.63;6385527;22;44847;-89
2023/06/02 22:04:05;;;;;;;;;3.67;2.00;;;;;21.20;39.77;69179.25;6384957;22;45997;-90
2023/06/02 22:06:30;;;;;;;;;2.00;2.00;;;;;21.25;39.88;69276.66;6385384;22;44854;-89